Time;durP1;ratioP1;P1;durP2;ratioP2;P2;SDS_P1;SDS_P2;PMS_P1;PMS_P2;Temp;Humidity;BMP_temperature;BMP_pressure;BME280_temperature;BME280_humidity;BME280_pressure;Samples;Min_cycle;Max_cycle;Signal;HPM_P1;HPM_P2
2022/12/19 00:06:23;;;;;;;2.05;1.30;;;;;;;15.98;65.91;101531.56;20414111;28;20061;-92
2022/12/19 00:16:49;;;;;;;1.83;1.50;;;;;;;15.97;66.27;101495.81;20978380;27;20128;-90
2022/12/19 00:26:49;;;;;;;1.77;1.30;;;;;;;15.97;66.03;101487.75;20418266;28;20064;-91
2022/12/19 00:44:16;;;;;;;1.85;1.42;;;;;;;15.87;66.37;101452.59;21094674;27;20128;-90
2022/12/19 00:54:17;;;;;;;1.85;1.52;;;;;;;15.97;65.90;101458.22;20500961;28;20089;-89
2022/12/19 01:22:30;;;;;;;1.90;1.40;;;;;;;15.51;66.05;101350.44;20253468;28;20495;-91
2022/12/19 01:32:47;;;;;;;1.80;1.50;;;;;;;15.61;65.92;101336.34;21080423;27;20130;-91
2022/12/19 01:42:48;;;;;;;2.40;1.70;;;;;;;15.97;65.97;101393.75;20260048;28;20055;-89
2022/12/19 01:53:12;;;;;;;1.50;1.27;;;;;;;15.81;65.83;101351.84;20984733;27;20129;-91
2022/12/19 02:03:24;;;;;;;2.10;1.48;;;;;;;15.90;65.98;101361.13;20039126;28;20061;-92
2022/12/19 02:13:45;;;;;;;1.70;1.57;;;;;;;15.87;64.86;101264.66;21150663;27;20889;-90
2022/12/19 02:24:03;;;;;;;1.67;1.38;;;;;;;16.18;65.11;101309.88;20617923;28;20050;-90
2022/12/19 02:41:17;;;;;;;2.28;1.60;;;;;;;16.09;65.54;101333.75;21015567;27;20125;-91
2022/12/19 02:51:19;;;;;;;1.98;1.50;;;;;;;16.03;65.66;101315.44;20359573;28;20054;-88
2022/12/19 03:02:09;;;;;;;1.63;1.35;;;;;;;16.02;65.66;101292.22;21038425;27;20126;-91
2022/12/19 03:12:27;;;;;;;2.03;1.63;;;;;;;16.01;65.78;101282.44;20160413;28;20056;-91
2022/12/19 03:23:29;;;;;;;2.08;1.65;;;;;;;16.01;65.64;101255.59;21176128;27;20127;-91
2022/12/19 03:33:31;;;;;;;2.05;1.75;;;;;;;15.99;65.92;101249.50;20537777;28;20143;-91
2022/12/19 03:51:01;;;;;;;1.92;1.40;;;;;;;16.00;65.79;101244.97;21031614;27;20124;-89
2022/12/19 04:01:03;;;;;;;1.95;1.60;;;;;;;15.99;65.96;101221.75;20314931;28;20352;-91
2022/12/19 04:11:38;;;;;;;2.22;1.70;;;;;;;15.45;65.74;101124.63;21103500;27;20127;-90
2022/12/19 04:21:44;;;;;;;1.83;1.40;;;;;;;15.32;66.17;101095.16;20356403;28;20058;-91
2022/12/19 04:39:00;;;;;;;1.52;1.27;;;;;;;15.72;65.62;101128.91;21011246;27;20127;-89
2022/12/19 04:49:01;;;;;;;1.60;1.50;;;;;;;16.00;65.84;101167.94;20259439;28;20057;-91
2022/12/19 05:06:11;;;;;;;1.88;1.67;;;;;;;16.01;65.87;101164.28;21065547;27;20583;-89
2022/12/19 05:16:12;;;;;;;1.65;1.38;;;;;;;16.01;65.83;101129.38;20099483;28;20048;-90
2022/12/19 05:26:40;;;;;;;1.75;1.55;;;;;;;15.81;65.68;101083.41;21173503;27;20128;-90
2022/12/19 05:36:41;;;;;;;1.92;1.67;;;;;;;16.02;65.81;101114.09;20554335;28;20078;-90
2022/12/19 05:53:13;;;;;;;1.80;1.58;;;;;;;16.02;65.72;101101.56;21038393;27;20130;-90
2022/12/19 06:03:14;;;;;;;1.63;1.20;;;;;;;15.81;65.94;101067.28;20271327;28;20075;-90
2022/12/19 06:20:05;;;;;;;1.25;1.15;;;;;;;16.02;65.75;101090.81;20981209;27;20134;-89
2022/12/19 06:30:06;;;;;;;1.42;1.33;;;;;;;15.90;66.14;101063.06;20169206;29;20069;-90
2022/12/19 06:47:28;;;;;;;1.30;1.20;;;;;;;16.31;64.82;101082.28;21027281;27;20411;-90
2022/12/19 06:57:29;;;;;;;1.73;1.38;;;;;;;16.25;65.01;101074.72;19951401;28;20081;-90
2022/12/19 07:07:50;;;;;;;1.67;1.33;;;;;;;16.19;65.24;101064.44;21059894;27;20129;-90
2022/12/19 07:17:51;;;;;;;1.33;1.20;;;;;;;16.14;65.45;101063.97;20084467;28;20062;-86
2022/12/19 07:28:06;;;;;;;1.50;1.30;;;;;;;15.80;65.49;101028.00;21038421;27;20134;-90
2022/12/19 07:38:07;;;;;;;1.30;1.20;;;;;;;16.09;65.63;101081.28;19989058;28;20151;-90
2022/12/19 07:48:25;;;;;;;1.48;1.33;;;;;;;16.08;65.62;101066.16;20977149;27;20130;-90
2022/12/19 07:58:25;;;;;;;1.17;1.02;;;;;;;16.07;66.14;101069.81;20386286;28;20200;-90
2022/12/19 08:15:39;;;;;;;1.20;1.08;;;;;;;16.07;65.97;101077.88;21138225;27;20659;-90
2022/12/19 08:25:40;;;;;;;1.40;1.17;;;;;;;16.07;66.04;101075.19;20153623;28;1227879;-89
2022/12/19 08:35:41;;;;;;;1.20;0.90;;;;;;;16.06;65.94;101086.91;18948656;30;20071;-90
2022/12/19 08:45:44;;;;;;;1.25;1.15;;;;;;;15.87;65.81;101033.75;18914208;31;20462;-91
2022/12/19 08:55:46;;;;;;;1.25;1.00;;;;;;;15.88;65.73;101042.69;18921172;31;20532;-90
2022/12/19 09:05:58;;;;;;;1.38;1.25;;;;;;;15.73;65.82;101010.66;18945108;31;20064;-90
2022/12/19 09:16:14;;;;;;;1.48;1.38;;;;;;;15.84;65.79;101022.38;18942047;31;20565;-90
2022/12/19 09:26:17;;;;;;;1.40;1.30;;;;;;;16.08;65.86;101070.66;18874627;29;1049223;-91
2022/12/19 09:36:22;;;;;;;1.40;1.10;;;;;;;16.09;66.02;101069.69;20033571;29;20132;-91
2022/12/19 09:46:43;;;;;;;0.95;0.88;;;;;;;16.08;66.05;101078.72;20090677;29;20140;-90
2022/12/19 09:56:49;;;;;;;1.20;1.10;;;;;;;15.99;65.90;101061.50;20104424;29;20045;-91
2022/12/19 10:06:51;;;;;;;2.63;0.95;;;;;;;16.09;65.87;101086.66;20103237;29;20057;-91
2022/12/19 10:17:32;;;;;;;1.25;1.10;;;;;;;15.82;65.94;101054.75;20088758;29;20059;-90
2022/12/19 10:27:48;;;;;;;1.08;1.00;;;;;;;16.09;65.86;101086.66;20096281;29;20244;-90
2022/12/19 10:38:27;;;;;;;1.55;1.10;;;;;;;16.11;65.89;101074.94;20074761;29;20503;-90
2022/12/19 10:48:29;;;;;;;1.08;0.90;;;;;;;15.88;65.99;101050.72;20074822;29;20050;-91
2022/12/19 10:58:37;;;;;;;1.20;0.95;;;;;;;16.12;66.04;101068.59;20068877;29;20125;-90
2022/12/19 11:08:38;;;;;;;1.10;1.00;;;;;;;16.13;66.01;101070.31;20065909;29;20084;-90
2022/12/19 11:18:46;;;;;;;1.23;1.08;;;;;;;16.11;66.14;101075.78;20083045;29;20053;-90
2022/12/19 11:29:38;;;;;;;1.00;0.85;;;;;;;16.12;66.14;101052.50;20287451;28;20348;-90
2022/12/19 11:40:04;;;;;;;0.85;0.75;;;;;;;16.12;66.03;101065.91;20536008;28;20133;-90
2022/12/19 11:50:13;;;;;;;0.82;0.80;;;;;;;16.12;66.06;101057.84;20522928;28;20059;-91
2022/12/19 12:00:20;;;;;;;0.82;0.82;;;;;;;16.12;66.21;101055.16;20515847;28;20495;-90
2022/12/19 12:10:21;;;;;;;0.70;0.70;;;;;;;16.12;65.84;101036.38;20521089;28;20507;-90
2022/12/19 12:20:55;;;;;;;0.75;0.70;;;;;;;16.11;66.04;101037.34;20501492;28;20056;-90
2022/12/19 12:31:42;;;;;;;0.70;0.70;;;;;;;16.13;66.05;101027.34;20440001;28;20060;-90
2022/12/19 12:42:25;;;;;;;1.00;0.88;;;;;;;16.13;66.17;101027.34;20364763;28;20328;-90
2022/12/19 12:52:35;;;;;;;0.60;0.60;;;;;;;16.13;66.23;101005.84;20408356;28;20654;-89
2022/12/19 13:02:36;;;;;;;0.80;0.60;;;;;;;16.16;66.34;101009.16;20391787;28;20133;-91
2022/12/19 13:13:00;;;;;;;0.60;0.60;;;;;;;16.23;66.66;101006.81;20471929;28;20058;-88
2022/12/19 13:23:04;;;;;;;0.88;0.80;;;;;;;16.27;66.66;101013.66;20472895;28;20082;-90
2022/12/19 13:33:07;;;;;;;0.82;0.80;;;;;;;16.04;66.88;100962.66;20609682;28;20054;-87
2022/12/19 13:53:35;;;;;;;0.80;0.70;;;;;;;16.35;66.92;100987.06;20654247;28;20050;-84
2022/12/19 14:03:39;;;;;;;0.57;0.57;;;;;;;16.37;67.22;100976.16;20643162;28;20069;-87
2022/12/19 14:24:34;;;;;;;0.75;0.60;;;;;;;16.41;67.19;100944.53;20639428;28;20395;-87
2022/12/19 14:34:36;;;;;;;0.55;0.50;;;;;;;16.41;67.29;100949.91;20607607;28;20388;-85
2022/12/19 14:44:57;;;;;;;0.77;0.68;;;;;;;16.42;67.45;100936.34;20612553;28;21208;-87
2022/12/19 14:55:19;;;;;;;1.67;0.70;;;;;;;16.44;67.51;100933.53;20624079;28;20049;-84
2022/12/19 15:05:41;;;;;;;0.55;0.50;;;;;;;16.37;67.66;100927.78;20623520;28;20402;-87
2022/12/19 15:15:59;;;;;;;0.52;0.50;;;;;;;16.44;67.69;100933.53;20596879;28;20046;-84
2022/12/19 15:26:04;;;;;;;0.60;0.55;;;;;;;16.45;67.86;100913.75;20594142;28;20054;-86
2022/12/19 15:36:08;;;;;;;0.65;0.65;;;;;;;16.44;67.94;100942.44;20494988;28;20486;-86
2022/12/19 15:46:11;;;;;;;0.50;0.50;;;;;;;16.45;67.93;100946.81;20501555;28;20043;-93
2022/12/19 15:56:23;;;;;;;0.70;0.50;;;;;;;16.37;67.80;100946.59;20495256;28;20050;-94
2022/12/19 16:06:24;;;;;;;0.70;0.60;;;;;;;16.38;67.96;100953.69;20497726;28;20047;-91
2022/12/19 16:16:26;;;;;;;0.60;0.50;;;;;;;16.46;67.98;100966.50;20493330;28;20070;-84
2022/12/19 16:26:34;;;;;;;0.52;0.50;;;;;;;16.29;67.99;100946.38;20503784;28;20396;-84
2022/12/19 16:36:35;;;;;;;0.70;0.70;;;;;;;16.24;68.24;100922.56;20538965;28;20062;-85
2022/12/19 16:46:37;;;;;;;0.40;0.40;;;;;;;16.28;68.38;100918.66;20542367;28;20066;-85
2022/12/19 16:56:46;;;;;;;0.50;0.50;;;;;;;16.47;68.52;100949.41;20550005;28;20054;-85
2022/12/19 17:06:49;;;;;;;0.85;0.50;;;;;;;16.47;68.49;100938.66;20589622;28;20074;-90
2022/12/19 17:16:53;;;;;;;0.60;0.60;;;;;;;16.48;68.70;100948.41;20588523;28;20101;-84
2022/12/19 17:26:55;;;;;;;0.80;0.57;;;;;;;16.18;68.69;100901.59;20548498;28;20058;-89
2022/12/19 17:36:59;;;;;;;0.70;0.70;;;;;;;16.25;68.69;100913.53;20567352;28;20058;-85
2022/12/19 17:47:00;;;;;;;0.60;0.60;;;;;;;16.31;68.98;100909.50;20569465;28;20526;-86
2022/12/19 17:57:02;;;;;;;0.52;0.47;;;;;;;16.45;69.04;100924.50;20557739;28;20050;-85
2022/12/19 18:07:10;;;;;;;1.05;0.60;;;;;;;16.42;69.21;100927.44;20558436;28;20042;-85
2022/12/19 18:17:15;;;;;;;0.55;0.40;;;;;;;16.39;69.13;100933.91;20541646;28;20054;-86
2022/12/19 18:27:16;;;;;;;0.97;0.80;;;;;;;16.37;69.11;100930.50;20598663;28;20045;-85
2022/12/19 18:37:18;;;;;;;1.02;0.57;;;;;;;16.35;69.15;100925.25;20717869;28;20287;-85
2022/12/19 18:47:21;;;;;;;1.45;0.60;;;;;;;16.34;69.24;100939.63;20699002;28;20054;-86
2022/12/19 18:57:22;;;;;;;0.45;0.45;;;;;;;16.33;69.24;100947.84;20696030;28;20049;-85
2022/12/19 19:07:24;;;;;;;0.68;0.68;;;;;;;15.91;69.03;100897.47;20715610;28;20050;-86
2022/12/19 19:17:27;;;;;;;0.80;0.60;;;;;;;16.22;69.21;100940.63;20696835;28;20093;-85
2022/12/19 19:27:28;;;;;;;1.85;0.70;;;;;;;16.30;69.03;100958.84;20651342;28;20046;-86
2022/12/19 19:37:30;;;;;;;0.55;0.55;;;;;;;16.31;69.09;100960.53;20631938;28;20050;-86
2022/12/19 19:47:34;;;;;;;0.82;0.60;;;;;;;16.01;68.97;100909.19;20631012;28;20062;-85
2022/12/19 19:57:36;;;;;;;1.23;0.60;;;;;;;16.03;69.23;100917.09;20631104;28;20129;-88
2022/12/19 20:07:37;;;;;;;0.45;0.43;;;;;;;16.17;69.23;100953.59;20630105;28;20104;-88
2022/12/19 20:17:39;;;;;;;0.80;0.60;;;;;;;16.29;69.03;100975.94;20629681;28;20815;-88
2022/12/19 20:27:41;;;;;;;0.60;0.60;;;;;;;15.81;69.06;100906.22;20701065;28;20104;-88
2022/12/19 20:37:42;;;;;;;0.75;0.60;;;;;;;16.09;69.03;100955.06;20710394;28;20053;-88
2022/12/19 20:47:44;;;;;;;1.10;0.68;;;;;;;16.28;69.04;100972.38;20709622;28;20061;-88
2022/12/19 20:57:45;;;;;;;0.75;0.68;;;;;;;16.28;68.90;100977.75;20691534;28;20058;-86
2022/12/19 21:07:47;;;;;;;1.08;0.85;;;;;;;16.28;69.06;100977.75;20692146;28;20050;-88
2022/12/19 21:17:48;;;;;;;1.45;0.90;;;;;;;16.28;68.96;100972.38;20714956;28;20050;-88
2022/12/19 21:27:50;;;;;;;0.73;0.60;;;;;;;16.27;69.00;100973.34;20703141;28;20112;-88
2022/12/19 21:37:51;;;;;;;1.17;0.60;;;;;;;16.17;69.12;100957.16;20718645;28;20069;-89
2022/12/19 21:47:52;;;;;;;0.85;0.70;;;;;;;16.28;69.07;100964.31;20721770;28;20418;-88
2022/12/19 21:57:54;;;;;;;0.85;0.60;;;;;;;16.28;68.93;100961.63;20637228;28;20526;-88
2022/12/19 22:07:55;;;;;;;1.02;0.70;;;;;;;16.24;69.27;100958.34;20638940;28;20046;-89
2022/12/19 22:17:57;;;;;;;0.60;0.57;;;;;;;16.28;69.03;100947.38;20612155;28;20124;-89
2022/12/19 22:27:58;;;;;;;0.80;0.57;;;;;;;16.28;69.03;100950.88;20637517;28;20077;-88
2022/12/19 22:38:00;;;;;;;0.70;0.50;;;;;;;16.27;68.94;100938.44;20636673;28;20489;-88
2022/12/19 22:48:01;;;;;;;1.17;0.63;;;;;;;16.27;68.88;100933.06;20618220;28;20073;-88
2022/12/19 22:58:03;;;;;;;1.13;0.82;;;;;;;16.27;68.91;100933.06;20617932;28;20057;-88
2022/12/19 23:08:05;;;;;;;1.15;0.70;;;;;;;16.28;69.15;100960.78;20600754;28;20043;-89
2022/12/19 23:18:06;;;;;;;0.88;0.50;;;;;;;16.27;68.95;100946.50;20582336;28;20043;-88
2022/12/19 23:28:08;;;;;;;0.70;0.50;;;;;;;16.09;68.89;100904.03;20552861;28;20061;-89
2022/12/19 23:38:10;;;;;;;1.02;0.60;;;;;;;16.16;69.09;100903.53;20551287;28;20101;-88
2022/12/19 23:48:11;;;;;;;0.82;0.73;;;;;;;15.93;68.90;100849.88;20550589;28;20050;-88
2022/12/19 23:58:12;;;;;;;0.60;0.60;;;;;;;16.15;68.88;100869.59;20557534;28;20123;-88
